createdAt,value
2019-05-23T00:01:13.743Z,140.70
2019-05-23T00:04:13.576Z,139.95
2019-05-23T00:07:00.511Z,141.43
2019-05-23T00:09:46.751Z,140.57
2019-05-23T00:12:34.213Z,141.95
2019-05-23T00:15:12.500Z,141.07
2019-05-23T00:17:44.252Z,141.28
2019-05-23T00:20:15.679Z,141.28
2019-05-23T00:22:43.920Z,142.15
2019-05-23T00:25:11.898Z,142.07
2019-05-23T00:27:42.335Z,141.92
2019-05-23T00:30:18.183Z,141.28
2019-05-23T00:32:49.417Z,141.77
2019-05-23T00:35:18.939Z,142.00
2019-05-23T00:37:48.077Z,144.07
2019-05-23T00:40:16.501Z,141.57
2019-05-23T00:42:44.811Z,142.45
2019-05-23T00:45:12.614Z,141.55
2019-05-23T00:47:40.259Z,140.55
2019-05-23T00:50:07.962Z,139.52
2019-05-23T00:52:37.434Z,141.75
2019-05-23T00:55:09.481Z,140.95
2019-05-23T00:57:39.354Z,140.88
2019-05-23T01:00:09.037Z,140.32
2019-05-23T01:02:36.207Z,140.47
2019-05-23T01:05:04.365Z,140.03
2019-05-23T01:07:32.539Z,140.97
2019-05-23T01:09:59.850Z,140.22
2019-05-23T01:12:27.759Z,140.18
2019-05-23T01:14:57.522Z,140.22
2019-05-23T01:17:26.580Z,139.12
2019-05-23T01:19:53.900Z,142.07
2019-05-23T01:22:21.690Z,141.25
2019-05-23T01:24:52.019Z,140.77
2019-05-23T01:27:20.100Z,141.57
2019-05-23T01:29:51.940Z,140.55
2019-05-23T01:32:26.623Z,140.18
2019-05-23T01:34:54.551Z,139.95
2019-05-23T01:37:22.345Z,139.47
2019-05-23T01:39:50.033Z,140.15
2019-05-23T01:42:17.802Z,140.57
2019-05-23T01:44:46.856Z,140.80
2019-05-23T01:47:14.697Z,139.22
2019-05-23T01:49:42.223Z,139.88
2019-05-23T01:52:11.205Z,139.72
2019-05-23T01:54:40.579Z,139.82
2019-05-23T01:57:10.102Z,139.70
2019-05-23T01:59:37.230Z,140.10
2019-05-23T02:02:04.503Z,139.90
2019-05-23T02:04:32.521Z,141.43
2019-05-23T02:06:59.798Z,141.05
2019-05-23T02:09:27.598Z,138.95
2019-05-23T02:11:54.727Z,138.03
2019-05-23T02:14:22.596Z,140.10
2019-05-23T02:16:49.789Z,139.12
2019-05-23T02:19:18.873Z,139.00
2019-05-23T02:21:46.151Z,137.80
2019-05-23T02:24:13.886Z,138.20
2019-05-23T02:26:41.351Z,138.85
2019-05-23T02:29:09.432Z,140.32
2019-05-23T02:31:37.033Z,139.45
2019-05-23T02:34:05.430Z,139.88
2019-05-23T02:36:33.864Z,141.68
2019-05-23T02:39:20.795Z,139.90
2019-05-23T02:41:57.668Z,141.12
2019-05-23T02:44:27.397Z,139.25
2019-05-23T02:47:03.399Z,140.52
2019-05-23T02:49:33.281Z,138.25
2019-05-23T02:52:14.832Z,139.52
2019-05-23T02:54:42.276Z,138.47
2019-05-23T02:57:11.058Z,138.00
2019-05-23T02:59:45.723Z,139.07
2019-05-23T03:02:56.094Z,138.03
2019-05-23T03:05:25.645Z,139.57
2019-05-23T03:07:53.575Z,141.40
2019-05-23T03:10:23.304Z,141.32
2019-05-23T03:12:52.659Z,141.10
2019-05-23T03:15:21.053Z,139.28
2019-05-23T03:17:52.019Z,139.90
2019-05-23T03:20:20.936Z,139.68
2019-05-23T03:22:53.848Z,139.57
2019-05-23T03:26:18.753Z,140.60
2019-05-23T03:28:47.814Z,140.15
2019-05-23T03:31:29.446Z,138.37
2019-05-23T03:33:52.241Z,139.22
2019-05-23T03:36:21.230Z,138.62
2019-05-23T03:38:49.318Z,138.60
2019-05-23T03:41:19.424Z,140.92
2019-05-23T03:43:46.514Z,141.35
2019-05-23T03:46:19.039Z,138.60
2019-05-23T03:48:46.667Z,138.55
2019-05-23T03:51:14.813Z,139.18
2019-05-23T03:53:44.957Z,138.82
2019-05-23T03:56:12.749Z,139.80
2019-05-23T03:58:43.660Z,141.40
2019-05-23T04:01:12.752Z,142.50
2019-05-23T04:03:42.137Z,146.07
2019-05-23T04:06:11.402Z,143.15
2019-05-23T04:08:38.591Z,140.68
2019-05-23T04:11:07.247Z,142.07
2019-05-23T04:13:38.198Z,138.97
2019-05-23T04:16:31.074Z,140.50
2019-05-23T04:19:01.127Z,141.03
2019-05-23T04:21:28.629Z,141.77
2019-05-23T04:23:56.508Z,142.03
2019-05-23T04:26:29.709Z,142.82
2019-05-23T04:28:59.277Z,141.70
2019-05-23T04:31:29.621Z,141.92
2019-05-23T04:33:56.681Z,140.35
2019-05-23T04:36:23.692Z,141.20
2019-05-23T04:38:50.948Z,141.85
2019-05-23T04:41:18.463Z,145.77
2019-05-23T04:43:45.444Z,141.97
2019-05-23T04:46:12.634Z,142.72
2019-05-23T04:48:39.679Z,143.45
2019-05-23T04:51:10.450Z,142.85
2019-05-23T04:53:38.231Z,143.20
2019-05-23T04:56:57.812Z,143.30
2019-05-23T04:59:51.264Z,144.32
2019-05-23T05:02:26.954Z,142.93
2019-05-23T05:04:52.780Z,145.07
2019-05-23T05:07:21.178Z,144.97
2019-05-23T05:09:48.620Z,145.22
2019-05-23T05:12:15.871Z,146.02
2019-05-23T05:14:42.867Z,144.93
2019-05-23T05:17:11.150Z,144.77
2019-05-23T05:19:38.793Z,148.30
2019-05-23T05:22:05.838Z,149.50
2019-05-23T05:24:32.861Z,148.62
2019-05-23T05:27:00.438Z,152.40
2019-05-23T05:29:27.381Z,149.90
2019-05-23T05:32:03.424Z,152.12
2019-05-23T05:34:28.532Z,153.90
2019-05-23T05:36:55.493Z,151.63
2019-05-23T05:39:23.403Z,150.97
2019-05-23T05:41:50.579Z,149.00
2019-05-23T05:44:18.292Z,152.07
2019-05-23T05:46:45.298Z,154.55
2019-05-23T05:49:12.984Z,151.82
2019-05-23T05:51:39.980Z,155.35
2019-05-23T05:54:08.540Z,153.57
2019-05-23T05:56:35.560Z,154.27
2019-05-23T05:59:03.905Z,155.63
2019-05-23T06:01:34.342Z,157.20
2019-05-23T06:04:01.641Z,154.93
2019-05-23T06:06:34.414Z,157.43
2019-05-23T06:09:07.429Z,156.72
2019-05-23T06:11:35.098Z,156.67
2019-05-23T06:14:02.266Z,158.30
2019-05-23T06:16:29.806Z,156.12
2019-05-23T06:18:56.884Z,155.67
2019-05-23T06:21:27.422Z,156.80
2019-05-23T06:25:13.558Z,154.85
2019-05-23T06:27:51.222Z,155.15
2019-05-23T06:30:20.916Z,157.22
2019-05-23T06:32:48.159Z,154.55
2019-05-23T06:35:15.631Z,155.75
2019-05-23T06:37:42.584Z,155.30
2019-05-23T06:40:10.050Z,155.37
2019-05-23T06:42:37.053Z,154.20
2019-05-23T06:45:07.225Z,152.87
2019-05-23T06:47:35.210Z,153.60
2019-05-23T06:50:04.366Z,152.82
2019-05-23T06:52:31.663Z,151.87
2019-05-23T06:54:59.878Z,154.40
2019-05-23T06:57:27.074Z,152.45
2019-05-23T06:59:54.219Z,154.68
2019-05-23T07:02:21.818Z,157.65
2019-05-23T07:04:49.677Z,159.30
2019-05-23T07:07:16.744Z,157.95
2019-05-23T07:09:44.009Z,160.37
2019-05-23T07:12:18.439Z,165.73
2019-05-23T07:14:58.410Z,163.80
2019-05-23T07:17:34.429Z,166.70
2019-05-23T07:20:10.054Z,169.70
2019-05-23T07:22:57.693Z,164.93
2019-05-23T07:25:41.351Z,162.22
2019-05-23T07:28:29.083Z,167.18
2019-05-23T07:31:05.742Z,166.92
2019-05-23T07:34:01.059Z,164.77
2019-05-23T07:36:23.136Z,163.12
2019-05-23T07:39:11.520Z,166.95
2019-05-23T07:41:40.828Z,162.45
2019-05-23T07:44:30.929Z,165.60
2019-05-23T07:47:10.030Z,170.00
2019-05-23T07:53:03.283Z,168.40
2019-05-23T07:55:55.605Z,170.65
2019-05-23T07:58:25.488Z,170.87
2019-05-23T08:00:57.745Z,174.25
2019-05-23T08:03:29.114Z,170.87
2019-05-23T08:05:59.102Z,166.62
2019-05-23T08:08:26.524Z,168.22
2019-05-23T08:10:56.375Z,168.62
2019-05-23T08:13:23.925Z,172.40
2019-05-23T08:15:51.788Z,169.70
2019-05-23T08:18:19.138Z,170.15
2019-05-23T08:20:46.201Z,169.25
2019-05-23T08:23:13.582Z,166.82
2019-05-23T08:25:47.792Z,167.80
2019-05-23T08:28:14.914Z,166.82
2019-05-23T08:30:42.615Z,168.20
2019-05-23T08:33:11.804Z,173.05
2019-05-23T08:35:42.380Z,166.22
2019-05-23T08:38:10.092Z,167.18
2019-05-23T08:40:38.150Z,169.00
2019-05-23T08:43:05.744Z,169.22
2019-05-23T08:45:34.511Z,167.32
2019-05-23T08:48:04.159Z,174.68
2019-05-23T08:50:31.339Z,168.52
2019-05-23T08:52:58.529Z,169.35
2019-05-23T08:55:26.308Z,172.75
2019-05-23T08:57:54.223Z,171.35
2019-05-23T09:00:24.067Z,169.32
2019-05-23T09:02:58.298Z,168.60
2019-05-23T09:05:27.576Z,168.50
2019-05-23T09:07:57.201Z,167.95
2019-05-23T09:10:29.117Z,170.80
2019-05-23T09:20:53.566Z,163.80
2019-05-23T09:23:28.092Z,168.68
2019-05-23T09:26:11.123Z,172.65
2019-05-23T09:28:40.226Z,164.88
2019-05-23T09:31:24.041Z,169.87
2019-05-23T09:33:52.779Z,170.90
2019-05-23T09:36:19.878Z,169.93
2019-05-23T09:38:47.365Z,169.28
2019-05-23T09:41:16.743Z,169.40
2019-05-23T09:43:44.499Z,171.50
2019-05-23T09:46:13.958Z,169.55
2019-05-23T09:48:41.831Z,166.20
2019-05-23T09:51:09.121Z,167.62
2019-05-23T09:53:37.645Z,170.60
2019-05-23T09:56:04.864Z,171.55
2019-05-23T09:58:32.140Z,175.25
2019-05-23T10:00:59.314Z,171.15
2019-05-23T10:03:26.890Z,167.10
2019-05-23T10:05:53.967Z,168.97
2019-05-23T10:08:21.375Z,166.88
2019-05-23T10:10:48.511Z,168.80
2019-05-23T10:13:15.922Z,166.05
2019-05-23T10:16:11.757Z,169.75
2019-05-23T10:18:40.441Z,171.18
2019-05-23T10:21:07.959Z,162.80
2019-05-23T10:23:35.077Z,169.85
2019-05-23T10:26:04.334Z,167.07
2019-05-23T10:28:32.112Z,169.77
2019-05-23T10:31:00.758Z,168.00
2019-05-23T10:33:28.993Z,172.40
2019-05-23T10:36:00.725Z,169.77
2019-05-23T10:38:29.456Z,167.35
2019-05-23T10:40:59.836Z,166.70
2019-05-23T10:43:27.824Z,169.53
2019-05-23T10:45:55.129Z,171.53
2019-05-23T10:48:22.744Z,174.95
2019-05-23T10:50:50.196Z,163.50
2019-05-23T10:53:17.594Z,171.85
2019-05-23T10:55:44.913Z,167.22
2019-05-23T10:58:15.619Z,167.85
2019-05-23T11:00:44.097Z,168.40
2019-05-23T11:03:12.366Z,168.82
2019-05-23T11:06:13.318Z,168.37
2019-05-23T11:08:30.575Z,170.35
2019-05-23T11:11:00.335Z,164.00
2019-05-23T11:13:28.057Z,161.30
2019-05-23T11:15:56.588Z,166.03
2019-05-23T11:18:24.613Z,167.55
2019-05-23T11:20:53.591Z,166.62
2019-05-23T11:23:25.134Z,165.95
2019-05-23T11:25:52.536Z,172.10
2019-05-23T11:28:19.616Z,178.85
2019-05-23T11:30:54.617Z,167.13
2019-05-23T11:33:21.995Z,164.70
2019-05-23T11:35:49.954Z,171.32
2019-05-23T11:38:17.201Z,169.02
2019-05-23T11:40:44.318Z,167.80
2019-05-23T11:43:11.411Z,167.87
2019-05-23T11:45:46.421Z,168.13
2019-05-23T11:48:16.137Z,166.47
2019-05-23T11:50:44.125Z,165.22
2019-05-23T11:53:11.275Z,163.95
2019-05-23T11:55:40.280Z,167.32
2019-05-23T11:58:11.451Z,166.35
2019-05-23T12:01:33.597Z,166.90
2019-05-23T12:04:32.906Z,171.98
2019-05-23T12:07:11.232Z,167.53
2019-05-23T12:09:38.441Z,171.18
2019-05-23T12:12:07.329Z,175.60
2019-05-23T12:14:35.006Z,177.72
2019-05-23T12:17:04.589Z,179.45
2019-05-23T12:19:32.223Z,176.78
2019-05-23T12:22:00.233Z,176.10
2019-05-23T12:24:27.758Z,177.20
2019-05-23T12:26:55.005Z,176.80
2019-05-23T12:29:25.116Z,173.00
2019-05-23T12:31:52.262Z,178.65
2019-05-23T12:34:24.181Z,180.55
2019-05-23T12:36:53.154Z,177.20
2019-05-23T12:39:21.522Z,176.00
2019-05-23T12:41:48.718Z,177.60
2019-05-23T12:44:17.838Z,177.35
2019-05-23T12:46:45.509Z,170.90
2019-05-23T12:49:27.392Z,166.10
2019-05-23T12:51:55.404Z,170.35
2019-05-23T12:54:24.078Z,172.93
2019-05-23T12:56:52.049Z,171.00
2019-05-23T12:59:21.165Z,168.95
2019-05-23T13:01:50.435Z,170.72
2019-05-23T13:04:19.790Z,172.47
2019-05-23T13:06:47.124Z,168.15
2019-05-23T13:09:14.889Z,166.18
2019-05-23T13:11:42.063Z,169.85
2019-05-23T13:14:09.484Z,169.13
2019-05-23T13:16:38.954Z,167.45
2019-05-23T13:19:06.806Z,170.02
2019-05-23T13:21:34.035Z,163.47
2019-05-23T13:24:02.499Z,166.62
2019-05-23T13:26:33.423Z,174.40
2019-05-23T13:29:04.265Z,173.72
2019-05-23T13:31:31.566Z,173.32
2019-05-23T13:34:01.458Z,177.30
2019-05-23T13:36:28.809Z,175.40
2019-05-23T13:38:56.228Z,173.72
2019-05-23T13:41:24.559Z,174.32
2019-05-23T13:44:01.614Z,170.80
2019-05-23T13:46:32.192Z,173.72
2019-05-23T13:49:01.737Z,172.93
2019-05-23T13:51:35.869Z,169.13
2019-05-23T13:54:04.040Z,168.43
2019-05-23T13:56:31.581Z,169.57
2019-05-23T13:59:00.500Z,172.05
2019-05-23T14:01:27.789Z,169.90
2019-05-23T14:03:55.239Z,173.85
2019-05-23T14:06:22.998Z,168.95
2019-05-23T14:08:50.440Z,172.95
2019-05-23T14:11:19.333Z,169.50
2019-05-23T14:13:47.246Z,165.62
2019-05-23T14:16:19.539Z,165.22
2019-05-23T14:18:49.503Z,162.32
2019-05-23T14:21:20.815Z,166.28
2019-05-23T14:23:51.123Z,172.25
2019-05-23T14:26:20.439Z,175.12
2019-05-23T14:28:51.907Z,168.85
2019-05-23T14:31:23.496Z,169.53
2019-05-23T14:34:13.720Z,165.80
2019-05-23T14:37:06.255Z,165.88
2019-05-23T14:39:39.223Z,166.20
2019-05-23T14:42:19.041Z,168.02
2019-05-23T14:44:48.799Z,165.90
2019-05-23T14:47:44.274Z,167.35
2019-05-23T14:50:32.837Z,168.28
2019-05-23T14:53:04.637Z,170.38
2019-05-23T14:55:37.775Z,168.57
2019-05-23T14:58:05.798Z,174.50
2019-05-23T15:00:37.681Z,177.25
2019-05-23T15:03:12.790Z,169.85
2019-05-23T15:05:50.789Z,172.17
2019-05-23T15:08:21.074Z,168.30
2019-05-23T15:10:49.931Z,170.22
2019-05-23T15:13:18.434Z,170.68
2019-05-23T15:15:51.154Z,173.87
2019-05-23T15:18:24.594Z,178.25
2019-05-23T15:21:13.981Z,167.77
2019-05-23T15:23:41.166Z,166.60
2019-05-23T15:26:22.503Z,167.25
2019-05-23T15:28:53.483Z,165.18
2019-05-23T15:31:26.962Z,165.12
2019-05-23T15:33:56.100Z,169.05
2019-05-23T15:36:23.493Z,165.15
2019-05-23T15:39:08.081Z,165.40
2019-05-23T15:41:23.378Z,167.37
2019-05-23T15:43:50.508Z,165.30
2019-05-23T15:46:18.933Z,167.15
2019-05-23T15:48:46.479Z,161.57
2019-05-23T15:51:17.805Z,160.18
2019-05-23T15:54:00.583Z,165.22
2019-05-23T15:56:33.306Z,163.60
2019-05-23T15:59:20.072Z,158.55
2019-05-23T16:02:06.978Z,161.30
2019-05-23T16:04:35.391Z,160.15
2019-05-23T16:07:03.125Z,163.15
2019-05-23T16:09:31.154Z,164.82
2019-05-23T16:11:59.080Z,165.00
2019-05-23T16:14:26.900Z,168.65
2019-05-23T16:16:56.718Z,168.68
2019-05-23T16:19:23.975Z,162.95
2019-05-23T16:21:51.490Z,165.97
2019-05-23T16:24:18.712Z,166.32
2019-05-23T16:26:46.758Z,172.45
2019-05-23T16:29:17.256Z,169.55
2019-05-23T16:31:46.073Z,167.90
2019-05-23T16:34:13.222Z,172.70
2019-05-23T16:36:40.351Z,172.22
2019-05-23T16:39:23.935Z,170.10
2019-05-23T16:41:51.293Z,172.47
2019-05-23T16:44:18.763Z,173.97
2019-05-23T16:46:46.151Z,174.23
2019-05-23T16:49:15.252Z,165.45
2019-05-23T16:51:42.580Z,170.17
2019-05-23T16:54:20.424Z,171.20
2019-05-23T16:57:28.349Z,172.57
2019-05-23T17:00:22.273Z,168.17
2019-05-23T17:03:16.676Z,172.28
2019-05-23T17:06:10.444Z,170.22
2019-05-23T17:08:50.145Z,169.00
2019-05-23T17:11:37.998Z,178.40
2019-05-23T17:14:15.438Z,171.45
2019-05-23T17:16:56.956Z,172.62
2019-05-23T17:19:46.705Z,173.17
2019-05-23T17:22:36.319Z,176.53
2019-05-23T17:25:20.543Z,173.65
2019-05-23T17:27:54.099Z,173.15
2019-05-23T17:30:28.003Z,170.75
2019-05-23T17:32:55.653Z,167.20
2019-05-23T17:35:23.255Z,178.82
2019-05-23T17:37:50.376Z,170.57
2019-05-23T17:40:25.063Z,172.43
2019-05-23T17:42:49.464Z,168.45
2019-05-23T17:45:17.643Z,167.25
2019-05-23T17:47:45.169Z,164.85
2019-05-23T17:50:12.292Z,165.92
2019-05-23T17:52:39.675Z,170.85
2019-05-23T17:55:07.189Z,171.55
2019-05-23T17:57:34.427Z,170.10
2019-05-23T18:00:01.769Z,164.40
2019-05-23T18:02:29.707Z,167.45
2019-05-23T18:05:01.742Z,168.50
2019-05-23T18:07:32.408Z,165.43
2019-05-23T18:10:01.717Z,166.03
2019-05-23T18:12:29.075Z,162.92
2019-05-23T18:14:58.528Z,159.35
2019-05-23T18:17:27.638Z,165.00
2019-05-23T18:19:54.777Z,161.40
2019-05-23T18:22:22.406Z,160.95
2019-05-23T18:24:49.742Z,160.15
2019-05-23T18:27:18.823Z,161.92
2019-05-23T18:29:46.692Z,159.78
2019-05-23T18:32:18.245Z,158.35
2019-05-23T18:35:09.220Z,161.52
2019-05-23T18:37:36.708Z,160.60
2019-05-23T18:40:04.562Z,158.05
2019-05-23T18:42:37.700Z,158.90
2019-05-23T18:45:06.005Z,160.45
2019-05-23T18:47:38.241Z,162.97
2019-05-23T18:50:11.311Z,161.15
2019-05-23T18:53:17.970Z,161.57
2019-05-23T18:56:21.284Z,160.63
2019-05-23T18:58:54.026Z,158.12
2019-05-23T19:01:26.167Z,158.78
2019-05-23T19:03:58.423Z,155.82
2019-05-23T19:06:25.821Z,157.93
2019-05-23T19:09:17.690Z,158.05
2019-05-23T19:11:54.665Z,156.47
2019-05-23T19:14:29.753Z,156.32
2019-05-23T19:16:58.326Z,156.75
2019-05-23T19:19:30.218Z,154.40
2019-05-23T19:21:59.222Z,155.60
2019-05-23T19:24:28.210Z,158.25
2019-05-23T19:26:58.174Z,159.10
2019-05-23T19:29:27.014Z,157.12
2019-05-23T19:31:58.893Z,155.52
2019-05-23T19:34:31.856Z,153.87
2019-05-23T19:37:08.707Z,152.43
2019-05-23T19:39:38.885Z,154.70
2019-05-23T19:42:07.439Z,153.32
2019-05-23T19:44:37.127Z,155.70
2019-05-23T19:47:11.682Z,156.28
2019-05-23T19:49:39.143Z,156.85
2019-05-23T19:52:07.212Z,153.57
2019-05-23T19:54:35.081Z,155.60
2019-05-23T19:57:05.070Z,155.22
2019-05-23T19:59:32.350Z,155.40
2019-05-23T20:02:21.983Z,153.32
2019-05-23T20:05:07.989Z,153.27
2019-05-23T20:07:36.129Z,154.32
2019-05-23T20:10:03.757Z,153.53
2019-05-23T20:12:31.436Z,153.70
2019-05-23T20:14:58.764Z,154.07
2019-05-23T20:17:25.890Z,153.25
2019-05-23T20:19:55.743Z,151.22
2019-05-23T20:22:24.195Z,151.05
2019-05-23T20:24:53.500Z,150.70
2019-05-23T20:27:24.027Z,151.32
2019-05-23T20:29:51.158Z,152.30
2019-05-23T20:32:18.917Z,151.95
2019-05-23T20:34:47.964Z,152.20
2019-05-23T20:37:15.214Z,153.32
2019-05-23T20:39:43.156Z,153.35
2019-05-23T20:42:12.046Z,156.35
2019-05-23T20:44:39.553Z,153.12
2019-05-23T20:47:07.915Z,151.75
2019-05-23T20:49:35.409Z,153.82
2019-05-23T20:52:03.562Z,154.70
2019-05-23T20:55:01.679Z,153.62
2019-05-23T20:57:45.212Z,152.47
2019-05-23T21:00:20.648Z,151.15
2019-05-23T21:02:48.557Z,149.90
2019-05-23T21:05:15.702Z,151.85
2019-05-23T21:07:43.289Z,150.75
2019-05-23T21:10:14.011Z,151.42
2019-05-23T21:12:41.074Z,150.20
2019-05-23T21:15:08.211Z,150.10
2019-05-23T21:17:35.705Z,151.78
2019-05-23T21:20:03.434Z,151.80
2019-05-23T21:22:31.896Z,150.75
2019-05-23T21:24:59.130Z,152.12
2019-05-23T21:27:26.785Z,151.22
2019-05-23T21:29:55.834Z,151.05
2019-05-23T21:32:26.733Z,151.57
2019-05-23T21:34:56.445Z,150.22
2019-05-23T21:37:23.619Z,150.03
2019-05-23T21:39:54.969Z,149.60
2019-05-23T21:42:23.989Z,150.75
2019-05-23T21:44:56.368Z,150.30
2019-05-23T21:47:23.484Z,150.35
2019-05-23T21:49:52.422Z,148.75
2019-05-23T21:52:20.140Z,149.00
2019-05-23T21:54:47.994Z,150.20
2019-05-23T21:57:16.594Z,148.32
2019-05-23T21:59:47.289Z,149.90
2019-05-23T22:02:21.650Z,150.93
2019-05-23T22:04:56.129Z,149.23
2019-05-23T22:07:28.982Z,148.22
2019-05-23T22:09:58.739Z,149.05
2019-05-23T22:12:25.974Z,147.07
2019-05-23T22:15:04.542Z,150.97
2019-05-23T22:17:31.914Z,147.55
2019-05-23T22:19:59.326Z,148.13
2019-05-23T22:22:26.881Z,147.07
2019-05-23T22:24:54.058Z,148.28
2019-05-23T22:27:22.102Z,148.85
2019-05-23T22:29:50.496Z,148.30
2019-05-23T22:32:19.794Z,148.55
2019-05-23T22:35:17.930Z,147.37
2019-05-23T22:37:49.179Z,148.28
2019-05-23T22:40:16.542Z,147.55
2019-05-23T22:42:45.719Z,148.57
2019-05-23T22:45:40.959Z,148.80
2019-05-23T22:48:14.807Z,146.82
2019-05-23T22:50:42.134Z,148.15
2019-05-23T22:53:09.689Z,149.15
2019-05-23T22:55:38.598Z,147.40
2019-05-23T22:58:07.693Z,147.78
2019-05-23T23:00:40.776Z,148.22
2019-05-23T23:03:08.503Z,147.45
2019-05-23T23:05:37.043Z,149.42
2019-05-23T23:08:06.524Z,146.53
2019-05-23T23:10:33.935Z,148.43
2019-05-23T23:13:01.019Z,147.63
2019-05-23T23:15:30.102Z,146.22
2019-05-23T23:17:59.467Z,147.35
2019-05-23T23:20:26.565Z,148.02
2019-05-23T23:22:53.719Z,148.20
2019-05-23T23:25:20.996Z,147.17
2019-05-23T23:27:48.313Z,147.15
2019-05-23T23:30:18.551Z,145.65
2019-05-23T23:32:45.726Z,146.18
2019-05-23T23:35:13.093Z,148.02
2019-05-23T23:37:41.527Z,146.40
2019-05-23T23:40:09.053Z,146.57
2019-05-23T23:42:38.285Z,146.90
2019-05-23T23:45:24.287Z,148.62
2019-05-23T23:48:09.580Z,147.55
2019-05-23T23:50:55.261Z,147.20
2019-05-23T23:53:40.818Z,147.65
2019-05-23T23:56:26.811Z,147.75
2019-05-23T23:58:53.637Z,147.17
